createdAt,value
2023-04-24T00:04:56.157Z,99120.09
2023-04-24T00:07:58.227Z,99117.98
2023-04-24T00:11:00.386Z,99119.13
2023-04-24T00:14:03.292Z,99119.80
2023-04-24T00:17:05.660Z,99122.81
2023-04-24T00:20:11.449Z,99124.38
2023-04-24T00:23:13.824Z,99123.94
2023-04-24T00:26:17.356Z,99122.84
2023-04-24T00:29:19.390Z,99120.70
2023-04-24T00:32:22.709Z,99120.94
2023-04-24T00:35:26.039Z,99117.27
2023-04-24T00:38:28.223Z,99117.64
2023-04-24T00:41:32.115Z,99118.46
2023-04-24T00:44:36.396Z,99116.95
2023-04-24T00:47:39.716Z,99116.91
2023-04-24T00:50:44.827Z,99118.67
2023-04-24T00:53:47.087Z,99117.22
2023-04-24T00:56:49.775Z,99112.46
2023-04-24T00:59:52.767Z,99109.89
2023-04-24T01:02:55.631Z,99109.64
2023-04-24T01:05:58.069Z,99106.84
2023-04-24T01:09:01.573Z,99112.30
2023-04-24T01:12:07.933Z,99109.44
2023-04-24T01:15:12.445Z,99109.39
2023-04-24T01:18:16.165Z,99105.95
2023-04-24T01:21:21.793Z,99107.42
2023-04-24T01:24:25.664Z,99102.77
2023-04-24T01:27:27.870Z,99098.00
2023-04-24T01:30:30.667Z,99101.79
2023-04-24T01:33:34.940Z,99100.77
2023-04-24T01:36:37.579Z,99095.08
2023-04-24T01:39:39.816Z,99090.31
2023-04-24T01:42:42.941Z,99092.09
2023-04-24T01:45:46.621Z,99090.38
2023-04-24T01:48:52.642Z,99086.77
2023-04-24T01:51:55.712Z,99086.79
2023-04-24T01:55:00.257Z,99086.19
2023-04-24T01:58:03.405Z,99083.65
2023-04-24T02:05:13.502Z,99077.11
2023-04-24T02:08:16.468Z,99078.64
2023-04-24T02:11:19.375Z,99069.07
2023-04-24T02:14:22.948Z,99069.46
2023-04-24T02:17:26.489Z,99068.09
2023-04-24T02:20:29.316Z,99067.20
2023-04-24T02:23:32.472Z,99064.58
2023-04-24T02:26:34.373Z,99062.83
2023-04-24T02:29:36.351Z,99061.83
2023-04-24T02:32:41.307Z,99059.48
2023-04-24T02:35:48.093Z,99056.91
2023-04-24T02:38:50.392Z,99056.32
2023-04-24T02:41:52.465Z,99060.20
2023-04-24T02:44:56.233Z,99058.41
2023-04-24T02:48:01.110Z,99058.61
2023-04-24T02:51:04.550Z,99057.88
2023-04-24T02:54:10.551Z,99058.61
2023-04-24T02:57:12.489Z,99056.14
2023-04-24T03:00:21.645Z,99057.77
2023-04-24T03:03:25.842Z,99053.55
2023-04-24T03:06:29.171Z,99053.39
2023-04-24T03:09:31.323Z,99050.02
2023-04-24T03:12:35.392Z,99050.92
2023-04-24T03:15:38.759Z,99052.88
2023-04-24T03:18:42.158Z,99047.63
2023-04-24T03:21:45.654Z,99052.50
2023-04-24T03:24:49.231Z,99052.11
2023-04-24T03:27:56.242Z,99061.69
2023-04-24T03:31:16.656Z,99060.90
2023-04-24T03:34:18.714Z,99067.02
2023-04-24T03:37:24.546Z,99063.70
2023-04-24T03:40:36.332Z,99067.23
2023-04-24T03:43:40.046Z,99069.53
2023-04-24T03:46:42.090Z,99070.48
2023-04-24T03:49:45.154Z,99073.86
2023-04-24T03:52:49.208Z,99073.83
2023-04-24T03:55:59.340Z,99077.88
2023-04-24T03:59:04.506Z,99076.95
2023-04-24T04:05:13.778Z,99075.69
2023-04-24T04:08:18.392Z,99079.52
2023-04-24T04:11:21.633Z,99079.95
2023-04-24T04:14:25.383Z,99081.23
2023-04-24T04:17:28.331Z,99085.10
2023-04-24T04:20:30.758Z,99081.67
2023-04-24T04:23:33.486Z,99082.41
2023-04-24T04:26:47.761Z,99076.35
2023-04-24T04:29:57.770Z,99076.13
2023-04-24T04:33:01.102Z,99080.05
2023-04-24T04:36:04.391Z,99078.60
2023-04-24T04:39:08.380Z,99082.04
2023-04-24T04:42:24.380Z,99081.09
2023-04-24T04:45:29.960Z,99081.97
2023-04-24T04:48:50.967Z,99084.82
2023-04-24T04:51:54.616Z,99084.20
2023-04-24T04:54:57.944Z,99088.42
2023-04-24T04:58:04.589Z,99088.48
2023-04-24T05:01:07.782Z,99085.63
2023-04-24T05:04:14.601Z,99085.40
2023-04-24T05:07:20.291Z,99084.02
2023-04-24T05:10:24.481Z,99083.52
2023-04-24T05:13:39.265Z,99081.82
2023-04-24T05:17:05.663Z,99078.28
2023-04-24T05:20:08.949Z,99078.93
2023-04-24T05:23:12.370Z,99077.79
2023-04-24T05:26:16.125Z,99078.88
2023-04-24T05:29:19.629Z,99079.41
2023-04-24T05:32:23.248Z,99076.23
2023-04-24T05:35:25.603Z,99072.88
2023-04-24T05:38:27.687Z,99072.48
2023-04-24T05:41:31.380Z,99070.98
2023-04-24T05:44:33.423Z,99070.60
2023-04-24T05:47:36.234Z,99067.98
2023-04-24T05:50:38.146Z,99069.10
2023-04-24T05:53:40.238Z,99067.36
2023-04-24T05:56:43.888Z,99068.56
2023-04-24T05:59:47.802Z,99067.49
2023-04-24T06:04:57.119Z,99063.32
2023-04-24T06:08:00.743Z,99058.38
2023-04-24T06:11:07.205Z,99055.61
2023-04-24T06:14:09.263Z,99057.17
2023-04-24T06:17:12.502Z,99055.21
2023-04-24T06:20:16.041Z,99054.66
2023-04-24T06:28:37.755Z,99052.88
2023-04-24T06:31:40.768Z,99055.66
2023-04-24T06:34:42.888Z,99057.11
2023-04-24T06:37:46.493Z,99058.57
2023-04-24T06:40:48.560Z,99058.80
2023-04-24T06:43:50.741Z,99059.09
2023-04-24T06:46:52.679Z,99059.16
2023-04-24T06:49:56.208Z,99060.56
2023-04-24T06:52:58.174Z,99062.13
2023-04-24T06:56:05.593Z,99061.62
2023-04-24T06:59:09.064Z,99063.63
2023-04-24T07:02:15.280Z,99062.37
2023-04-24T07:05:22.114Z,99061.20
2023-04-24T07:08:27.748Z,99067.05
2023-04-24T07:11:31.152Z,99069.07
2023-04-24T07:14:33.764Z,99070.36
2023-04-24T07:17:36.625Z,99069.69
2023-04-24T07:20:40.253Z,99064.45
2023-04-24T07:23:45.812Z,99065.58
2023-04-24T07:26:48.614Z,99063.78
2023-04-24T07:29:51.743Z,99065.52
2023-04-24T07:32:57.165Z,99059.58
2023-04-24T07:35:59.998Z,99065.06
2023-04-24T07:39:01.982Z,99068.06
2023-04-24T07:42:04.867Z,99067.39
2023-04-24T07:45:07.343Z,99068.21
2023-04-24T07:48:10.981Z,99066.55
2023-04-24T07:51:14.456Z,99062.89
2023-04-24T07:54:18.485Z,99061.77
2023-04-24T07:57:20.517Z,99065.31
2023-04-24T08:00:25.609Z,99066.88
2023-04-24T08:03:28.848Z,99063.76
2023-04-24T08:06:34.914Z,99064.20
2023-04-24T08:09:36.834Z,99060.31
2023-04-24T08:12:38.976Z,99063.27
2023-04-24T08:15:42.795Z,99057.56
2023-04-24T08:18:48.319Z,99057.58
2023-04-24T08:21:50.487Z,99058.71
2023-04-24T08:24:56.540Z,99047.00
2023-04-24T08:27:58.380Z,99052.65
2023-04-24T08:31:00.277Z,99047.84
2023-04-24T08:34:02.657Z,99046.83
2023-04-24T08:37:04.995Z,99047.14
2023-04-24T08:40:16.155Z,99040.47
2023-04-24T08:43:19.336Z,99030.60
2023-04-24T08:46:22.314Z,99039.52
2023-04-24T08:49:26.570Z,99037.11
2023-04-24T08:52:29.108Z,99033.35
2023-04-24T08:55:31.375Z,99026.77
2023-04-24T08:58:36.089Z,99021.98
2023-04-24T09:01:40.437Z,99017.14
2023-04-24T09:04:44.674Z,99011.02
2023-04-24T09:07:56.843Z,99012.30
2023-04-24T09:11:00.251Z,99008.38
2023-04-24T09:14:02.612Z,99009.57
2023-04-24T09:17:07.918Z,99008.23
2023-04-24T09:20:10.340Z,99004.13
2023-04-24T09:23:19.782Z,99005.19
2023-04-24T09:26:23.262Z,99000.35
2023-04-24T09:29:25.530Z,98996.39
2023-04-24T09:32:30.367Z,98991.15
2023-04-24T09:35:32.799Z,98987.99
2023-04-24T09:38:39.214Z,98987.91
2023-04-24T09:41:58.287Z,98989.30
2023-04-24T09:45:11.961Z,98991.68
2023-04-24T09:48:17.365Z,98991.55
2023-04-24T09:51:36.018Z,98993.35
2023-04-24T09:54:40.697Z,98988.02
2023-04-24T09:58:00.728Z,98984.48
2023-04-24T10:05:15.732Z,98977.89
2023-04-24T10:08:18.604Z,98975.65
2023-04-24T10:11:20.551Z,98971.76
2023-04-24T10:14:26.041Z,98968.86
2023-04-24T10:17:29.126Z,98964.90
2023-04-24T10:20:33.219Z,98960.48
2023-04-24T10:23:36.475Z,98961.64
2023-04-24T10:26:42.449Z,98964.67
2023-04-24T10:29:48.346Z,98960.30
2023-04-24T10:32:50.441Z,98962.00
2023-04-24T10:35:53.415Z,98961.72
2023-04-24T10:38:58.359Z,98959.86
2023-04-24T10:42:00.219Z,98957.33
2023-04-24T10:45:19.022Z,98952.94
2023-04-24T10:48:28.036Z,98952.46
2023-04-24T10:51:48.486Z,98950.20
2023-04-24T10:54:52.145Z,98944.42
2023-04-24T10:58:05.616Z,98943.19
2023-04-24T11:01:08.122Z,98940.61
2023-04-24T11:04:11.050Z,98941.02
2023-04-24T11:07:13.985Z,98934.15
2023-04-24T11:10:28.160Z,98935.65
2023-04-24T11:14:00.874Z,98932.84
2023-04-24T11:17:04.514Z,98925.02
2023-04-24T11:20:25.730Z,98924.69
2023-04-24T11:23:37.677Z,98932.30
2023-04-24T11:26:40.147Z,98939.13
2023-04-24T11:30:01.742Z,98950.35
2023-04-24T11:33:06.941Z,98952.79
2023-04-24T11:36:13.711Z,98950.65
2023-04-24T11:39:15.893Z,98955.92
2023-04-24T11:42:21.794Z,98952.00
2023-04-24T11:45:26.449Z,98951.35
2023-04-24T11:48:29.424Z,98951.39
2023-04-24T11:51:47.886Z,98954.88
2023-04-24T11:54:53.640Z,98957.64
2023-04-24T11:58:01.112Z,98949.23
2023-04-24T12:01:03.798Z,98953.89
2023-04-24T12:04:07.955Z,98954.63
2023-04-24T12:07:10.880Z,98956.91
2023-04-24T12:10:15.216Z,98950.58
2023-04-24T12:13:17.473Z,98950.23
2023-04-24T12:16:21.392Z,98947.23
2023-04-24T12:19:25.708Z,98946.30
2023-04-24T12:22:27.589Z,98945.73
2023-04-24T12:25:32.222Z,98942.85
2023-04-24T12:28:38.946Z,98938.05
2023-04-24T12:31:41.058Z,98936.36
2023-04-24T12:34:44.063Z,98932.83
2023-04-24T12:37:47.469Z,98931.70
2023-04-24T12:41:04.795Z,98926.04
2023-04-24T12:44:13.623Z,98920.70
2023-04-24T12:47:15.768Z,98917.36
2023-04-24T12:50:18.363Z,98913.57
2023-04-24T12:53:21.805Z,98912.84
2023-04-24T12:56:26.029Z,98913.61
2023-04-24T12:59:28.248Z,98912.38
2023-04-24T13:02:31.867Z,98911.05
2023-04-24T13:05:34.138Z,98902.13
2023-04-24T13:08:36.803Z,98902.61
2023-04-24T13:11:39.537Z,98905.94
2023-04-24T13:14:43.134Z,98905.74
2023-04-24T13:17:47.544Z,98905.00
2023-04-24T13:20:51.785Z,98900.85
2023-04-24T13:23:53.753Z,98898.52
2023-04-24T13:26:57.119Z,98901.66
2023-04-24T13:29:59.024Z,98895.58
2023-04-24T13:33:01.729Z,98890.29
2023-04-24T13:36:03.874Z,98886.75
2023-04-24T13:39:07.830Z,98878.95
2023-04-24T13:42:11.260Z,98878.53
2023-04-24T13:45:24.604Z,98875.29
2023-04-24T13:48:28.466Z,98874.66
2023-04-24T13:51:32.020Z,98875.36
2023-04-24T13:54:34.195Z,98886.58
2023-04-24T13:57:38.507Z,98891.96
2023-04-24T14:00:42.174Z,98893.54
2023-04-24T14:04:58.019Z,98897.09
2023-04-24T14:08:02.094Z,98896.02
2023-04-24T14:11:05.996Z,98885.61
2023-04-24T14:14:09.620Z,98876.98
2023-04-24T14:17:17.113Z,98873.55
2023-04-24T14:20:19.367Z,98873.48
2023-04-24T14:23:22.625Z,98869.25
2023-04-24T14:26:25.803Z,98865.76
2023-04-24T14:29:28.255Z,98861.63
2023-04-24T14:32:34.027Z,98859.56
2023-04-24T14:39:55.673Z,98858.30
2023-04-24T14:43:10.370Z,98854.48
2023-04-24T14:46:13.557Z,98850.37
2023-04-24T14:49:16.531Z,98841.40
2023-04-24T14:52:19.032Z,98841.23
2023-04-24T14:55:21.845Z,98843.25
2023-04-24T14:58:23.778Z,98834.47
2023-04-24T15:01:26.684Z,98834.34
2023-04-24T15:04:31.733Z,98834.33
2023-04-24T15:07:33.914Z,98831.97
2023-04-24T15:10:37.617Z,98826.58
2023-04-24T15:13:40.594Z,98819.79
2023-04-24T15:16:45.033Z,98817.98
2023-04-24T15:19:47.054Z,98815.03
2023-04-24T15:22:51.649Z,98813.58
2023-04-24T15:25:54.322Z,98812.37
2023-04-24T15:28:57.277Z,98810.70
2023-04-24T15:31:59.432Z,98804.89
2023-04-24T15:35:08.610Z,98802.70
2023-04-24T15:38:12.634Z,98795.61
2023-04-24T15:41:15.572Z,98796.67
2023-04-24T15:44:17.740Z,98795.59
2023-04-24T15:47:20.775Z,98790.39
2023-04-24T15:50:27.474Z,98786.44
2023-04-24T15:53:29.641Z,98785.52
2023-04-24T15:56:32.012Z,98779.80
2023-04-24T15:59:38.128Z,98776.01
2023-04-24T16:02:40.564Z,98775.48
2023-04-24T16:05:44.287Z,98774.27
2023-04-24T16:08:48.318Z,98768.83
2023-04-24T16:11:51.286Z,98764.59
2023-04-24T16:14:54.461Z,98762.30
2023-04-24T16:17:58.038Z,98758.31
2023-04-24T16:21:00.593Z,98753.23
2023-04-24T16:24:03.527Z,98748.16
2023-04-24T16:27:05.566Z,98741.25
2023-04-24T16:30:09.825Z,98738.83
2023-04-24T16:33:11.952Z,98737.95
2023-04-24T16:36:16.714Z,98738.00
2023-04-24T16:39:18.651Z,98742.54
2023-04-24T16:42:23.258Z,98740.96
2023-04-24T16:45:28.254Z,98739.27
2023-04-24T16:48:34.670Z,98739.45
2023-04-24T16:51:38.836Z,98744.35
2023-04-24T16:54:43.813Z,98746.59
2023-04-24T16:57:45.835Z,98744.23
2023-04-24T17:00:51.556Z,98748.97
2023-04-24T17:03:54.575Z,98753.32
2023-04-24T17:06:57.023Z,98753.11
2023-04-24T17:10:05.554Z,98754.23
2023-04-24T17:13:11.823Z,98754.69
2023-04-24T17:16:14.250Z,98753.50
2023-04-24T17:19:16.672Z,98757.65
2023-04-24T17:22:19.181Z,98756.73
2023-04-24T17:25:21.321Z,98760.02
2023-04-24T17:28:25.456Z,98765.64
2023-04-24T17:31:28.667Z,98771.49
2023-04-24T17:34:31.620Z,98773.58
2023-04-24T17:37:36.961Z,98777.56
2023-04-24T17:40:40.220Z,98772.44
2023-04-24T17:43:45.086Z,98772.12
2023-04-24T17:46:47.796Z,98771.63
2023-04-24T17:49:49.848Z,98770.61
2023-04-24T17:52:53.775Z,98775.31
2023-04-24T17:55:59.385Z,98775.08
2023-04-24T17:59:05.750Z,98781.27
2023-04-24T18:05:15.328Z,98783.29
2023-04-24T18:08:24.036Z,98789.55
2023-04-24T18:11:27.106Z,98794.42
2023-04-24T18:14:41.139Z,98797.11
2023-04-24T18:17:49.185Z,98798.29
2023-04-24T18:20:54.660Z,98803.55
2023-04-24T18:23:59.866Z,98801.20
2023-04-24T18:27:02.470Z,98805.85
2023-04-24T18:30:07.310Z,98808.35
2023-04-24T18:33:09.489Z,98804.95
2023-04-24T18:36:12.636Z,98812.08
2023-04-24T18:39:15.736Z,98813.38
2023-04-24T18:42:18.983Z,98815.90
2023-04-24T18:45:21.950Z,98815.81
2023-04-24T18:48:26.103Z,98818.73
2023-04-24T18:51:28.342Z,98819.73
2023-04-24T18:54:31.340Z,98816.25
2023-04-24T18:57:35.128Z,98817.21
2023-04-24T19:00:39.021Z,98815.65
2023-04-24T19:03:41.007Z,98817.19
2023-04-24T19:06:43.112Z,98815.04
2023-04-24T19:09:46.877Z,98814.13
2023-04-24T19:12:55.915Z,98810.79
2023-04-24T19:16:00.360Z,98805.35
2023-04-24T19:19:05.822Z,98805.97
2023-04-24T19:22:10.591Z,98801.55
2023-04-24T19:25:13.772Z,98801.80
2023-04-24T19:28:19.815Z,98802.63
2023-04-24T19:31:25.385Z,98804.43
2023-04-24T19:34:28.865Z,98803.48
2023-04-24T19:37:31.845Z,98801.16
2023-04-24T19:40:34.642Z,98799.45
2023-04-24T19:43:36.809Z,98796.45
2023-04-24T19:46:39.495Z,98798.80
2023-04-24T19:49:41.568Z,98800.16
2023-04-24T19:52:44.909Z,98798.48
2023-04-24T19:55:48.216Z,98797.44
2023-04-24T19:58:51.819Z,98797.83
2023-04-24T20:01:55.485Z,98800.40
2023-04-24T20:04:57.575Z,98797.61
2023-04-24T20:08:02.017Z,98793.70
2023-04-24T20:11:05.843Z,98792.73
2023-04-24T20:14:08.133Z,98790.80
2023-04-24T20:17:11.024Z,98794.97
2023-04-24T20:20:14.788Z,98787.10
2023-04-24T20:23:20.319Z,98784.42
2023-04-24T20:26:23.044Z,98785.26
2023-04-24T20:29:25.995Z,98782.67
2023-04-24T20:32:29.126Z,98781.35
2023-04-24T20:35:34.999Z,98779.70
2023-04-24T20:38:37.343Z,98779.04
2023-04-24T20:41:40.163Z,98777.07
2023-04-24T20:44:42.108Z,98771.58
2023-04-24T20:47:44.406Z,98771.44
2023-04-24T20:50:49.632Z,98775.17
2023-04-24T20:53:52.715Z,98775.15
2023-04-24T20:56:55.032Z,98783.75
2023-04-24T20:59:56.972Z,98780.96
2023-04-24T21:02:59.087Z,98776.27
2023-04-24T21:06:01.258Z,98777.45
2023-04-24T21:09:05.503Z,98773.55
2023-04-24T21:12:09.400Z,98772.06
2023-04-24T21:15:11.347Z,98771.73
2023-04-24T21:18:14.199Z,98771.98
2023-04-24T21:21:16.172Z,98772.08
2023-04-24T21:24:19.251Z,98776.06
2023-04-24T21:27:21.480Z,98776.71
2023-04-24T21:30:24.648Z,98776.05
2023-04-24T21:33:27.999Z,98771.54
2023-04-24T21:36:32.698Z,98771.00
2023-04-24T21:39:35.971Z,98767.36
2023-04-24T21:42:39.083Z,98767.65
2023-04-24T21:45:41.454Z,98767.13
2023-04-24T21:48:43.293Z,98767.73
2023-04-24T21:51:45.722Z,98766.85
2023-04-24T21:54:47.776Z,98764.80
2023-04-24T21:57:50.020Z,98761.17
2023-04-24T22:05:16.865Z,98758.73
2023-04-24T22:08:19.990Z,98760.15
2023-04-24T22:11:26.607Z,98757.09
2023-04-24T22:14:29.352Z,98755.30
2023-04-24T22:17:31.300Z,98753.59
2023-04-24T22:20:33.615Z,98755.63
2023-04-24T22:23:36.014Z,98752.33
2023-04-24T22:26:37.895Z,98750.93
2023-04-24T22:29:40.046Z,98753.06
2023-04-24T22:32:43.331Z,98749.38
2023-04-24T22:35:45.166Z,98746.99
2023-04-24T22:38:47.256Z,98738.61
2023-04-24T22:41:49.233Z,98739.23
2023-04-24T22:44:51.327Z,98737.25
2023-04-24T22:47:54.413Z,98735.02
2023-04-24T22:50:56.746Z,98733.81
2023-04-24T22:54:03.812Z,98729.06
2023-04-24T22:57:06.718Z,98724.60
2023-04-24T23:00:46.780Z,98723.27
2023-04-24T23:03:48.979Z,98723.23
2023-04-24T23:06:51.279Z,98721.50
2023-04-24T23:09:53.226Z,98717.77
2023-04-24T23:12:55.238Z,98715.69
2023-04-24T23:15:57.156Z,98713.39
2023-04-24T23:18:59.063Z,98710.02
2023-04-24T23:22:02.032Z,98710.29
2023-04-24T23:25:04.382Z,98709.27
2023-04-24T23:28:06.437Z,98708.75
2023-04-24T23:31:09.217Z,98709.05
2023-04-24T23:34:11.140Z,98706.38
2023-04-24T23:37:13.043Z,98705.43
2023-04-24T23:40:15.122Z,98702.48
2023-04-24T23:43:17.676Z,98695.59
2023-04-24T23:46:21.103Z,98689.19
2023-04-24T23:49:23.244Z,98687.46
2023-04-24T23:52:26.457Z,98684.97
2023-04-24T23:55:29.241Z,98686.78
2023-04-24T23:58:31.598Z,98681.72
